createdAt,value
2023-04-30T00:01:53.060Z,18.47
2023-04-30T00:04:30.776Z,18.27
2023-04-30T00:07:01.805Z,21.93
2023-04-30T00:09:39.512Z,17.07
2023-04-30T00:12:22.367Z,14.27
2023-04-30T00:15:04.321Z,14.90
2023-04-30T00:17:44.519Z,18.13
2023-04-30T00:20:25.781Z,15.07
2023-04-30T00:22:59.266Z,17.20
2023-04-30T00:25:32.911Z,15.47
2023-04-30T00:28:02.815Z,16.00
2023-04-30T00:30:40.512Z,14.70
2023-04-30T00:33:21.359Z,16.60
2023-04-30T00:36:00.745Z,15.67
2023-04-30T00:38:35.132Z,15.50
2023-04-30T00:41:11.461Z,14.47
2023-04-30T00:43:44.280Z,17.00
2023-04-30T00:46:15.393Z,18.80
2023-04-30T00:48:51.686Z,15.00
2023-04-30T00:51:28.571Z,13.80
2023-04-30T00:54:06.001Z,15.73
2023-04-30T00:56:38.777Z,17.13
2023-04-30T00:59:18.849Z,12.90
2023-04-30T01:01:51.841Z,14.90
2023-04-30T01:04:26.188Z,18.30
2023-04-30T01:07:11.035Z,15.80
2023-04-30T01:09:50.924Z,17.03
2023-04-30T01:12:29.853Z,14.23
2023-04-30T01:15:14.927Z,18.23
2023-04-30T01:18:18.927Z,18.30
2023-04-30T01:20:58.674Z,16.33
2023-04-30T01:23:47.753Z,18.40
2023-04-30T01:26:27.231Z,16.90
2023-04-30T01:29:06.385Z,19.23
2023-04-30T01:31:41.184Z,16.63
2023-04-30T01:34:22.756Z,17.70
2023-04-30T01:37:09.735Z,16.93
2023-04-30T01:40:09.213Z,15.33
2023-04-30T01:42:54.145Z,17.57
2023-04-30T01:45:47.561Z,17.17
2023-04-30T01:48:26.283Z,15.37
2023-04-30T01:51:08.880Z,16.83
2023-04-30T01:53:45.269Z,19.17
2023-04-30T01:56:24.919Z,18.30
2023-04-30T01:59:03.576Z,18.47
2023-04-30T02:01:41.341Z,18.03
2023-04-30T02:04:15.646Z,19.10
2023-04-30T02:06:46.788Z,18.50
2023-04-30T02:09:24.745Z,19.10
2023-04-30T02:12:00.193Z,16.67
2023-04-30T02:14:35.829Z,16.37
2023-04-30T02:17:11.548Z,17.93
2023-04-30T02:19:48.417Z,19.23
2023-04-30T02:22:19.641Z,16.93
2023-04-30T02:24:50.226Z,22.90
2023-04-30T02:27:23.544Z,17.40
2023-04-30T02:29:56.666Z,21.63
2023-04-30T02:32:32.454Z,16.40
2023-04-30T02:35:11.762Z,16.03
2023-04-30T02:37:40.497Z,16.80
2023-04-30T02:40:12.224Z,15.63
2023-04-30T02:42:48.285Z,15.87
2023-04-30T02:45:19.763Z,19.60
2023-04-30T02:48:04.871Z,17.43
2023-04-30T02:50:33.606Z,16.47
2023-04-30T02:53:12.749Z,15.80
2023-04-30T02:55:43.897Z,15.37
2023-04-30T02:58:16.006Z,17.30
2023-04-30T03:00:46.116Z,16.20
2023-04-30T03:03:18.979Z,19.93
2023-04-30T03:05:50.256Z,15.70
2023-04-30T03:08:33.043Z,17.40
2023-04-30T03:11:04.015Z,16.80
2023-04-30T03:13:43.601Z,21.33
2023-04-30T03:16:18.898Z,21.60
2023-04-30T03:19:06.744Z,18.33
2023-04-30T03:21:42.119Z,18.73
2023-04-30T03:24:16.768Z,19.10
2023-04-30T03:26:47.195Z,22.30
2023-04-30T03:29:20.119Z,21.07
2023-04-30T03:31:57.330Z,18.73
2023-04-30T03:34:39.756Z,19.97
2023-04-30T03:37:16.056Z,19.73
2023-04-30T03:39:55.338Z,20.43
2023-04-30T03:42:29.702Z,19.97
2023-04-30T03:45:09.029Z,21.23
2023-04-30T03:47:43.155Z,19.60
2023-04-30T03:50:22.285Z,17.10
2023-04-30T03:53:00.627Z,20.23
2023-04-30T03:55:29.917Z,18.23
2023-04-30T03:58:01.694Z,19.37
2023-04-30T04:00:34.877Z,19.80
2023-04-30T04:03:05.726Z,20.93
2023-04-30T04:05:46.522Z,17.70
2023-04-30T04:08:31.640Z,17.60
2023-04-30T04:11:11.547Z,21.50
2023-04-30T04:13:47.143Z,22.10
2023-04-30T04:16:23.382Z,21.50
2023-04-30T04:18:57.204Z,19.90
2023-04-30T04:21:34.524Z,21.93
2023-04-30T04:24:19.037Z,22.30
2023-04-30T04:26:52.305Z,19.33
2023-04-30T04:29:28.246Z,23.13
2023-04-30T04:32:14.438Z,25.47
2023-04-30T04:34:52.283Z,22.93
2023-04-30T04:37:23.966Z,21.70
2023-04-30T04:39:54.916Z,21.67
2023-04-30T04:42:31.372Z,21.30
2023-04-30T04:45:05.259Z,20.00
2023-04-30T04:47:40.630Z,25.53
2023-04-30T04:50:17.871Z,22.17
2023-04-30T04:53:03.105Z,21.93
2023-04-30T04:55:50.368Z,22.80
2023-04-30T04:58:21.714Z,22.83
2023-04-30T05:00:55.251Z,21.03
2023-04-30T05:03:39.524Z,23.30
2023-04-30T05:06:20.141Z,25.27
2023-04-30T05:09:12.832Z,21.00
2023-04-30T05:11:53.900Z,18.70
2023-04-30T05:14:26.779Z,19.40
2023-04-30T05:17:02.956Z,24.03
2023-04-30T05:19:41.655Z,20.23
2023-04-30T05:22:15.282Z,22.50
2023-04-30T05:24:53.615Z,23.97
2023-04-30T05:27:33.643Z,23.33
2023-04-30T05:32:52.387Z,19.90
2023-04-30T05:35:25.877Z,25.20
2023-04-30T05:38:00.302Z,19.73
2023-04-30T05:40:36.414Z,23.77
2023-04-30T05:43:11.095Z,19.67
2023-04-30T05:45:46.480Z,17.67
2023-04-30T05:48:15.201Z,19.73
2023-04-30T05:50:55.814Z,19.73
2023-04-30T05:53:29.473Z,23.53
2023-04-30T05:56:16.143Z,25.97
2023-04-30T05:58:53.167Z,19.30
2023-04-30T06:01:27.266Z,21.80
2023-04-30T06:03:59.578Z,21.00
2023-04-30T06:06:38.789Z,19.27
2023-04-30T06:09:19.331Z,22.00
2023-04-30T06:11:51.065Z,20.90
2023-04-30T06:14:26.393Z,24.30
2023-04-30T06:16:59.506Z,19.87
2023-04-30T06:19:30.318Z,23.10
2023-04-30T06:22:01.414Z,18.40
2023-04-30T06:24:37.098Z,20.73
2023-04-30T06:27:16.474Z,26.97
2023-04-30T06:29:47.181Z,21.73
2023-04-30T06:32:23.359Z,23.57
2023-04-30T06:34:59.073Z,17.93
2023-04-30T06:37:36.148Z,20.10
2023-04-30T06:40:14.330Z,19.10
2023-04-30T06:42:58.228Z,19.83
2023-04-30T06:45:32.478Z,17.63
2023-04-30T06:48:16.178Z,19.47
2023-04-30T06:50:52.292Z,19.17
2023-04-30T06:53:22.966Z,18.63
2023-04-30T06:55:58.152Z,19.27
2023-04-30T06:58:45.873Z,17.00
2023-04-30T07:01:22.148Z,20.20
2023-04-30T07:04:02.217Z,18.67
2023-04-30T07:06:41.821Z,15.33
2023-04-30T07:09:18.651Z,17.73
2023-04-30T07:12:04.948Z,18.70
2023-04-30T07:14:40.620Z,16.90
2023-04-30T07:17:10.782Z,15.77
2023-04-30T07:19:42.380Z,16.70
2023-04-30T07:22:12.884Z,15.50
2023-04-30T07:24:43.783Z,15.77
2023-04-30T07:27:17.262Z,13.60
2023-04-30T07:30:03.905Z,14.97
2023-04-30T07:32:35.108Z,18.53
2023-04-30T07:35:07.398Z,15.03
2023-04-30T07:37:41.139Z,11.73
2023-04-30T07:40:34.726Z,15.27
2023-04-30T07:43:09.755Z,17.90
2023-04-30T07:45:51.173Z,12.33
2023-04-30T07:48:28.986Z,16.00
2023-04-30T07:51:05.977Z,12.70
2023-04-30T07:53:37.440Z,14.17
2023-04-30T07:56:15.551Z,12.63
2023-04-30T07:58:49.621Z,16.63
2023-04-30T08:01:24.176Z,11.20
2023-04-30T08:04:00.886Z,12.43
2023-04-30T08:06:34.128Z,12.60
2023-04-30T08:09:04.783Z,12.70
2023-04-30T08:11:41.378Z,13.73
2023-04-30T08:14:21.538Z,12.10
2023-04-30T08:17:01.268Z,12.80
2023-04-30T08:19:35.158Z,15.43
2023-04-30T08:22:05.125Z,12.77
2023-04-30T08:24:35.343Z,11.57
2023-04-30T08:27:14.202Z,9.30
2023-04-30T08:29:44.596Z,9.80
2023-04-30T08:32:22.625Z,9.17
2023-04-30T08:35:00.622Z,9.70
2023-04-30T08:37:29.071Z,11.27
2023-04-30T08:40:12.389Z,9.70
2023-04-30T08:42:46.244Z,10.00
2023-04-30T08:45:18.298Z,11.00
2023-04-30T08:48:05.559Z,10.17
2023-04-30T08:50:49.640Z,9.20
2023-04-30T08:53:21.050Z,11.43
2023-04-30T08:55:52.203Z,11.00
2023-04-30T08:58:31.564Z,10.40
2023-04-30T09:01:09.988Z,10.33
2023-04-30T09:03:48.494Z,11.53
2023-04-30T09:06:22.901Z,12.67
2023-04-30T09:09:02.174Z,12.50
2023-04-30T09:11:35.588Z,8.37
2023-04-30T09:14:15.706Z,11.23
2023-04-30T09:16:56.760Z,8.67
2023-04-30T09:19:38.600Z,8.53
2023-04-30T09:22:32.395Z,9.53
2023-04-30T09:25:00.994Z,8.60
2023-04-30T09:27:32.018Z,8.10
2023-04-30T09:30:17.033Z,6.07
2023-04-30T09:32:57.000Z,7.90
2023-04-30T09:35:42.311Z,7.57
2023-04-30T09:38:29.002Z,5.97
2023-04-30T09:41:00.310Z,7.50
2023-04-30T09:43:33.900Z,8.10
2023-04-30T09:46:06.903Z,6.00
2023-04-30T09:48:37.484Z,6.50
2023-04-30T09:51:13.932Z,6.90
2023-04-30T09:53:49.047Z,6.23
2023-04-30T09:56:33.327Z,6.40
2023-04-30T09:59:10.647Z,6.37
2023-04-30T10:01:41.057Z,6.27
2023-04-30T10:04:11.485Z,8.73
2023-04-30T10:06:46.194Z,6.27
2023-04-30T10:09:24.298Z,6.33
2023-04-30T10:12:02.281Z,6.50
2023-04-30T10:14:35.807Z,6.40
2023-04-30T10:17:15.301Z,6.43
2023-04-30T10:19:56.850Z,7.07
2023-04-30T10:22:34.133Z,6.60
2023-04-30T10:25:07.648Z,7.50
2023-04-30T10:27:47.914Z,5.73
2023-04-30T10:30:19.808Z,6.47
2023-04-30T10:33:00.142Z,5.67
2023-04-30T10:35:36.032Z,6.23
2023-04-30T10:38:27.390Z,5.50
2023-04-30T10:41:03.785Z,5.40
2023-04-30T10:43:35.583Z,6.20
2023-04-30T10:46:08.062Z,5.60
2023-04-30T10:48:41.661Z,6.77
2023-04-30T10:51:11.017Z,5.07
2023-04-30T10:53:53.048Z,4.77
2023-04-30T10:56:37.102Z,6.80
2023-04-30T10:59:11.698Z,5.43
2023-04-30T11:01:59.804Z,6.57
2023-04-30T11:04:39.096Z,6.07
2023-04-30T11:07:15.819Z,5.27
2023-04-30T11:09:53.250Z,6.70
2023-04-30T11:12:31.862Z,6.43
2023-04-30T11:15:15.186Z,5.03
2023-04-30T11:17:49.123Z,5.37
2023-04-30T11:20:32.471Z,4.10
2023-04-30T11:23:22.202Z,10.77
2023-04-30T11:26:08.000Z,5.47
2023-04-30T11:28:48.376Z,5.60
2023-04-30T11:31:23.214Z,7.03
2023-04-30T11:33:53.447Z,5.10
2023-04-30T11:36:31.846Z,5.93
2023-04-30T11:39:09.314Z,4.80
2023-04-30T11:41:47.658Z,5.27
2023-04-30T11:44:36.944Z,6.63
2023-04-30T11:47:12.027Z,5.00
2023-04-30T11:49:43.765Z,5.53
2023-04-30T11:52:17.780Z,4.57
2023-04-30T11:55:00.527Z,16.03
2023-04-30T11:57:47.479Z,5.43
2023-04-30T12:00:24.416Z,4.60
2023-04-30T12:03:01.487Z,4.20
2023-04-30T12:05:41.946Z,11.30
2023-04-30T12:08:13.623Z,6.40
2023-04-30T12:10:47.702Z,3.90
2023-04-30T12:13:35.060Z,3.80
2023-04-30T12:16:09.242Z,5.90
2023-04-30T12:18:42.586Z,6.70
2023-04-30T12:21:19.474Z,5.80
2023-04-30T12:23:52.570Z,10.00
2023-04-30T12:26:32.111Z,6.57
2023-04-30T12:29:11.215Z,4.93
2023-04-30T12:31:45.694Z,13.30
2023-04-30T12:34:17.103Z,5.57
2023-04-30T12:36:46.858Z,7.17
2023-04-30T12:39:24.755Z,4.30
2023-04-30T12:42:00.277Z,8.47
2023-04-30T12:44:51.502Z,6.00
2023-04-30T12:47:21.857Z,4.37
2023-04-30T12:49:55.830Z,3.87
2023-04-30T12:52:36.920Z,7.77
2023-04-30T12:55:23.981Z,7.50
2023-04-30T12:58:17.244Z,8.00
2023-04-30T13:01:04.511Z,5.60
2023-04-30T13:03:36.081Z,5.13
2023-04-30T13:06:09.260Z,4.20
2023-04-30T13:08:56.793Z,4.27
2023-04-30T13:11:31.524Z,3.83
2023-04-30T13:14:12.996Z,8.60
2023-04-30T13:16:50.178Z,5.70
2023-04-30T13:19:25.840Z,5.90
2023-04-30T13:21:57.559Z,5.53
2023-04-30T13:24:36.833Z,4.23
2023-04-30T13:27:15.352Z,4.50
2023-04-30T13:29:49.040Z,4.27
2023-04-30T13:32:29.069Z,7.40
2023-04-30T13:35:04.113Z,6.00
2023-04-30T13:37:38.421Z,4.30
2023-04-30T13:40:08.903Z,4.10
2023-04-30T13:42:44.090Z,3.97
2023-04-30T13:45:12.846Z,4.70
2023-04-30T13:47:47.702Z,3.70
2023-04-30T13:50:21.732Z,3.90
2023-04-30T13:53:02.247Z,7.63
2023-04-30T13:55:33.788Z,3.73
2023-04-30T13:58:11.601Z,3.50
2023-04-30T14:00:42.230Z,4.40
2023-04-30T14:03:22.289Z,3.73
2023-04-30T14:06:04.803Z,4.40
2023-04-30T14:08:42.140Z,7.00
2023-04-30T14:11:16.918Z,3.60
2023-04-30T14:13:59.171Z,3.50
2023-04-30T14:16:39.419Z,4.93
2023-04-30T14:19:25.215Z,3.33
2023-04-30T14:22:04.033Z,8.27
2023-04-30T14:24:39.769Z,3.70
2023-04-30T14:27:10.627Z,8.03
2023-04-30T14:29:44.187Z,3.87
2023-04-30T14:32:22.760Z,3.50
2023-04-30T14:35:06.603Z,3.90
2023-04-30T14:37:49.053Z,3.90
2023-04-30T14:40:30.813Z,4.10
2023-04-30T14:43:04.135Z,3.57
2023-04-30T14:45:39.564Z,3.70
2023-04-30T14:48:18.860Z,3.40
2023-04-30T14:50:56.580Z,4.20
2023-04-30T14:53:35.365Z,4.13
2023-04-30T14:56:07.353Z,3.50
2023-04-30T14:58:40.864Z,3.40
2023-04-30T15:01:13.131Z,3.60
2023-04-30T15:03:45.689Z,5.03
2023-04-30T15:06:28.499Z,3.40
2023-04-30T15:09:02.447Z,3.20
2023-04-30T15:11:38.108Z,3.10
2023-04-30T15:14:11.799Z,3.30
2023-04-30T15:16:42.647Z,3.83
2023-04-30T15:19:15.900Z,3.67
2023-04-30T15:22:00.017Z,4.63
2023-04-30T15:24:30.929Z,4.97
2023-04-30T15:27:05.473Z,4.53
2023-04-30T15:29:44.796Z,3.40
2023-04-30T15:32:25.332Z,3.40
2023-04-30T15:35:01.405Z,3.77
2023-04-30T15:37:38.574Z,4.30
2023-04-30T15:40:16.376Z,5.00
2023-04-30T15:42:48.591Z,3.50
2023-04-30T15:45:31.705Z,3.30
2023-04-30T15:48:02.497Z,4.90
2023-04-30T15:50:33.015Z,8.27
2023-04-30T15:53:08.632Z,3.90
2023-04-30T15:55:42.045Z,3.57
2023-04-30T15:58:14.966Z,3.20
2023-04-30T16:00:46.475Z,3.50
2023-04-30T16:03:17.084Z,3.40
2023-04-30T16:05:49.638Z,3.50
2023-04-30T16:08:24.501Z,4.50
2023-04-30T16:11:01.268Z,3.60
2023-04-30T16:13:40.793Z,4.70
2023-04-30T16:16:17.127Z,7.10
2023-04-30T16:18:48.949Z,3.37
2023-04-30T16:21:28.151Z,3.50
2023-04-30T16:24:03.187Z,4.27
2023-04-30T16:26:41.717Z,4.47
2023-04-30T16:29:23.086Z,3.80
2023-04-30T16:31:59.644Z,5.07
2023-04-30T16:34:33.676Z,3.73
2023-04-30T16:37:13.737Z,4.10
2023-04-30T16:39:48.890Z,4.70
2023-04-30T16:42:21.087Z,6.10
2023-04-30T16:44:57.766Z,4.53
2023-04-30T16:47:33.315Z,4.00
2023-04-30T16:50:07.472Z,6.03
2023-04-30T16:52:40.203Z,3.70
2023-04-30T16:55:20.277Z,4.63
2023-04-30T16:57:59.062Z,3.13
2023-04-30T17:00:32.236Z,5.60
2023-04-30T17:03:04.611Z,3.20
2023-04-30T17:05:44.568Z,3.70
2023-04-30T17:08:25.105Z,3.40
2023-04-30T17:11:01.778Z,3.93
2023-04-30T17:13:32.192Z,3.70
2023-04-30T17:16:14.065Z,4.07
2023-04-30T17:18:54.100Z,3.47
2023-04-30T17:21:26.915Z,3.30
2023-04-30T17:23:57.457Z,3.30
2023-04-30T17:26:46.052Z,3.97
2023-04-30T17:29:17.725Z,6.43
2023-04-30T17:31:53.508Z,4.10
2023-04-30T17:34:29.739Z,3.20
2023-04-30T17:37:05.478Z,3.60
2023-04-30T17:39:41.981Z,3.80
2023-04-30T17:42:13.269Z,4.17
2023-04-30T17:44:43.516Z,4.53
2023-04-30T17:47:20.020Z,5.87
2023-04-30T17:49:50.244Z,5.30
2023-04-30T17:52:23.415Z,6.43
2023-04-30T17:54:57.420Z,6.53
2023-04-30T17:57:48.221Z,6.00
2023-04-30T18:00:28.677Z,6.33
2023-04-30T18:03:01.383Z,4.73
2023-04-30T18:05:35.270Z,8.53
2023-04-30T18:08:11.562Z,5.93
2023-04-30T18:10:45.362Z,4.03
2023-04-30T18:13:36.456Z,5.07
2023-04-30T18:16:16.003Z,3.97
2023-04-30T18:18:51.961Z,5.60
2023-04-30T18:21:25.730Z,7.60
2023-04-30T18:24:00.554Z,6.00
2023-04-30T18:26:40.710Z,4.70
2023-04-30T18:29:18.671Z,5.80
2023-04-30T18:31:55.498Z,8.00
2023-04-30T18:34:30.638Z,8.80
2023-04-30T18:37:01.455Z,8.53
2023-04-30T18:39:36.007Z,17.30
2023-04-30T18:42:13.516Z,25.87
2023-04-30T18:44:49.177Z,12.10
2023-04-30T18:47:26.629Z,5.23
2023-04-30T18:49:59.632Z,6.70
2023-04-30T18:52:32.790Z,7.03
2023-04-30T18:55:09.207Z,7.33
2023-04-30T18:57:41.384Z,6.80
2023-04-30T19:00:23.472Z,7.30
2023-04-30T19:03:01.389Z,8.73
2023-04-30T19:05:38.205Z,8.80
2023-04-30T19:08:19.139Z,6.33
2023-04-30T19:10:59.133Z,6.60
2023-04-30T19:13:36.133Z,5.10
2023-04-30T19:16:12.259Z,4.37
2023-04-30T19:18:48.549Z,4.70
2023-04-30T19:21:18.932Z,5.63
2023-04-30T19:24:01.566Z,5.77
2023-04-30T19:26:34.161Z,7.60
2023-04-30T19:29:09.802Z,5.20
2023-04-30T19:31:41.720Z,6.23
2023-04-30T19:34:18.674Z,6.30
2023-04-30T19:36:54.876Z,7.40
2023-04-30T19:39:39.207Z,6.70
2023-04-30T19:42:18.983Z,9.10
2023-04-30T19:44:52.455Z,6.70
2023-04-30T19:47:32.146Z,5.90
2023-04-30T19:50:04.560Z,7.00
2023-04-30T19:52:42.292Z,5.63
2023-04-30T19:55:18.149Z,6.57
2023-04-30T19:57:50.933Z,8.13
2023-04-30T20:00:20.675Z,7.70
2023-04-30T20:02:56.429Z,6.07
2023-04-30T20:05:31.646Z,9.60
2023-04-30T20:08:10.756Z,10.40
2023-04-30T20:10:50.786Z,14.80
2023-04-30T20:13:24.853Z,8.60
2023-04-30T20:15:56.144Z,8.70
2023-04-30T20:18:44.371Z,8.80
2023-04-30T20:21:14.541Z,9.03
2023-04-30T20:23:56.196Z,9.57
2023-04-30T20:26:29.254Z,6.60
2023-04-30T20:29:08.877Z,6.20
2023-04-30T20:31:42.827Z,9.77
2023-04-30T20:34:27.155Z,7.50
2023-04-30T20:37:00.977Z,8.17
2023-04-30T20:39:39.312Z,7.50
2023-04-30T20:42:20.885Z,11.73
2023-04-30T20:44:58.802Z,7.40
2023-04-30T20:47:35.442Z,6.53
2023-04-30T20:50:22.747Z,6.47
2023-04-30T20:52:52.897Z,5.27
2023-04-30T20:55:25.367Z,4.90
2023-04-30T20:58:03.705Z,5.73
2023-04-30T21:00:38.367Z,7.30
2023-04-30T21:03:08.310Z,5.67
2023-04-30T21:05:56.976Z,4.97
2023-04-30T21:08:30.309Z,5.60
2023-04-30T21:11:00.762Z,5.70
2023-04-30T21:13:40.239Z,7.20
2023-04-30T21:16:14.638Z,6.03
2023-04-30T21:18:53.760Z,7.20
2023-04-30T21:21:33.781Z,6.97
2023-04-30T21:26:49.632Z,9.10
2023-04-30T21:29:30.376Z,7.30
2023-04-30T21:32:08.495Z,6.57
2023-04-30T21:34:43.806Z,6.00
2023-04-30T21:37:18.957Z,10.53
2023-04-30T21:39:54.183Z,9.80
2023-04-30T21:42:29.649Z,10.60
2023-04-30T21:45:04.654Z,16.10
2023-04-30T21:47:44.810Z,11.73
2023-04-30T21:50:29.078Z,8.80
2023-04-30T21:53:03.665Z,6.10
2023-04-30T21:55:36.582Z,10.00
2023-04-30T21:58:07.075Z,6.33
2023-04-30T22:00:47.413Z,6.40
2023-04-30T22:03:18.173Z,5.60
2023-04-30T22:05:52.881Z,8.53
2023-04-30T22:08:22.461Z,5.80
2023-04-30T22:10:58.068Z,7.90
2023-04-30T22:13:31.420Z,7.90
2023-04-30T22:16:05.199Z,8.00
2023-04-30T22:18:42.155Z,6.07
2023-04-30T22:21:13.609Z,7.57
2023-04-30T22:23:51.392Z,6.27
2023-04-30T22:26:25.433Z,6.70
2023-04-30T22:29:05.719Z,10.60
2023-04-30T22:31:41.904Z,8.40
2023-04-30T22:34:25.720Z,26.33
2023-04-30T22:36:57.263Z,8.00
2023-04-30T22:39:48.289Z,9.40
2023-04-30T22:42:22.021Z,9.37
2023-04-30T22:44:53.272Z,9.50
2023-04-30T22:47:27.001Z,7.73
2023-04-30T22:49:57.601Z,13.50
2023-04-30T22:52:32.886Z,13.90
2023-04-30T22:55:11.739Z,16.60
2023-04-30T22:57:45.464Z,37.77
2023-04-30T23:00:18.351Z,8.87
2023-04-30T23:02:57.904Z,11.33
2023-04-30T23:05:31.133Z,11.33
2023-04-30T23:08:06.925Z,21.33
2023-04-30T23:10:44.634Z,19.10
2023-04-30T23:13:24.238Z,14.53
2023-04-30T23:15:55.832Z,33.43
2023-04-30T23:18:27.591Z,56.37
2023-04-30T23:20:59.220Z,45.63
2023-04-30T23:23:32.887Z,34.53
2023-04-30T23:26:09.633Z,25.20
2023-04-30T23:28:48.917Z,16.20
2023-04-30T23:31:30.160Z,9.67
2023-04-30T23:34:01.893Z,8.47
2023-04-30T23:36:41.187Z,6.80
2023-04-30T23:39:12.988Z,6.00
2023-04-30T23:41:48.722Z,6.83
2023-04-30T23:44:29.760Z,7.47
2023-04-30T23:47:12.448Z,7.97
2023-04-30T23:49:48.489Z,8.57
2023-04-30T23:52:22.175Z,8.63
2023-04-30T23:54:59.913Z,10.73
2023-04-30T23:57:32.397Z,9.83
